Time;durP1;ratioP1;P1;durP2;ratioP2;P2;SDS_P1;SDS_P2;PMS_P1;PMS_P2;Temp;Humidity;BMP_temperature;BMP_pressure;BME280_temperature;BME280_humidity;BME280_pressure;Samples;Min_cycle;Max_cycle;Signal;HPM_P1;HPM_P2
2022/09/12 00:00:42;;;;;;;31.55;28.90;;;;;;;14.53;87.09;101691.69;5049573;28;20102;-78
2022/09/12 00:03:08;;;;;;;32.45;29.45;;;;;;;14.57;86.68;101682.66;5049987;28;20029;-78
2022/09/12 00:05:33;;;;;;;40.80;37.25;;;;;;;14.56;86.69;101680.97;5035123;28;20029;-77
2022/09/12 00:07:59;;;;;;;36.85;33.75;;;;;;;14.55;86.47;101679.31;5042075;28;20078;-78
2022/09/12 00:10:25;;;;;;;33.03;30.20;;;;;;;14.38;86.99;101677.28;5049387;28;20025;-78
2022/09/12 00:12:50;;;;;;;31.73;29.02;;;;;;;14.28;86.81;101666.81;5040967;28;20047;-78
2022/09/12 00:15:16;;;;;;;32.25;29.33;;;;;;;14.07;87.24;101674.63;5031716;28;20425;-77
2022/09/12 00:17:41;;;;;;;32.10;29.38;;;;;;;14.12;87.38;101672.47;5034476;28;20886;-77
2022/09/12 00:20:08;;;;;;;31.60;28.90;;;;;;;14.06;87.68;101670.38;5049843;28;20104;-78
2022/09/12 00:22:36;;;;;;;32.05;29.33;;;;;;;14.16;87.85;101676.44;5048570;28;20017;-79
2022/09/12 00:25:02;;;;;;;32.00;29.25;;;;;;;14.12;88.19;101672.47;5049842;28;20500;-78
2022/09/12 00:27:28;;;;;;;31.60;28.90;;;;;;;13.87;88.90;101657.16;5044516;28;20053;-77
2022/09/12 00:29:53;;;;;;;32.75;29.80;;;;;;;13.87;88.28;101665.00;5038594;28;20032;-78
2022/09/12 00:32:19;;;;;;;32.60;29.70;;;;;;;13.84;88.56;101660.06;5047835;28;20021;-78
2022/09/12 00:34:44;;;;;;;33.33;30.42;;;;;;;13.87;88.95;101662.38;5035201;28;20033;-80
2022/09/12 00:37:10;;;;;;;33.58;30.63;;;;;;;13.75;89.11;101662.44;5040567;28;20139;-78
2022/09/12 00:39:35;;;;;;;32.92;30.02;;;;;;;13.65;89.19;101648.53;5038073;28;20106;-77
2022/09/12 00:42:00;;;;;;;34.47;31.48;;;;;;;13.76;89.17;101648.47;5042566;28;20430;-78
2022/09/12 00:44:26;;;;;;;35.65;32.58;;;;;;;13.74;89.47;101652.97;5037731;28;20450;-78
2022/09/12 00:46:57;;;;;;;34.55;31.55;;;;;;;13.68;90.11;101656.06;5050090;28;20037;-77
2022/09/12 00:49:25;;;;;;;34.40;31.40;;;;;;;13.72;89.85;101660.09;5048820;28;20033;-79
2022/09/12 00:52:17;;;;;;;35.50;32.45;;;;;;;13.73;90.34;101651.31;5049135;28;20469;-78
2022/09/12 00:54:52;;;;;;;34.72;31.63;;;;;;;13.67;89.97;101644.00;5043583;28;20539;-78
2022/09/12 00:57:22;;;;;;;34.60;31.60;;;;;;;13.70;90.10;101645.50;5048599;28;21283;-77
2022/09/12 00:59:56;;;;;;;35.08;32.15;;;;;;;13.76;90.57;101640.66;5047606;28;20025;-77
2022/09/12 01:02:22;;;;;;;35.60;32.50;;;;;;;13.80;89.91;101636.81;5036251;28;20115;-77
2022/09/12 01:04:48;;;;;;;33.70;30.85;;;;;;;13.88;89.24;101632.75;5042577;28;20120;-78
2022/09/12 01:07:20;;;;;;;33.65;30.83;;;;;;;13.87;89.25;101625.88;5036538;28;20489;-79
2022/09/12 01:12:58;;;;;;;33.55;30.67;;;;;;;13.58;89.60;101634.31;5041875;28;20036;-78
2022/09/12 01:15:23;;;;;;;33.78;30.88;;;;;;;13.47;89.78;101618.72;5037511;28;20047;-78
2022/09/12 01:18:10;;;;;;;33.65;30.75;;;;;;;13.60;89.67;101629.81;5041065;28;20380;-79
2022/09/12 01:20:53;;;;;;;34.28;31.25;;;;;;;13.69;90.35;101629.06;5042306;28;20191;-78
2022/09/12 01:23:24;;;;;;;34.28;31.38;;;;;;;13.58;90.01;101626.50;5045005;28;20022;-78
2022/09/12 01:26:27;;;;;;;34.65;31.65;;;;;;;13.63;90.42;101626.94;5035535;28;20029;-79
2022/09/12 01:29:17;;;;;;;34.72;31.73;;;;;;;13.67;90.33;101628.34;5048869;28;20040;-78
2022/09/12 01:32:04;;;;;;;35.45;32.28;;;;;;;13.67;89.89;101620.53;5027380;28;20035;-79
2022/09/12 01:34:41;;;;;;;35.53;32.55;;;;;;;13.68;90.20;101622.19;5041063;28;20029;-78
2022/09/12 01:37:13;;;;;;;34.65;31.60;;;;;;;13.64;90.06;101626.00;5039798;28;20053;-78
2022/09/12 01:39:50;;;;;;;35.45;32.45;;;;;;;13.57;90.58;101618.81;5035089;28;20067;-78
2022/09/12 01:42:25;;;;;;;36.28;33.08;;;;;;;13.53;91.07;101605.19;5040586;28;20033;-79
2022/09/12 01:45:02;;;;;;;36.75;33.55;;;;;;;13.45;91.29;101615.41;5046554;28;20027;-79
2022/09/12 01:47:40;;;;;;;34.90;31.92;;;;;;;13.36;90.93;101610.94;5048054;28;20461;-79
2022/09/12 01:50:09;;;;;;;36.38;33.20;;;;;;;13.32;91.18;101609.56;5031583;28;20108;-79
2022/09/12 01:52:51;;;;;;;37.05;33.78;;;;;;;13.35;91.52;101609.28;5048395;28;20032;-78
2022/09/12 01:55:41;;;;;;;36.63;33.15;;;;;;;13.44;91.21;101601.56;5043559;28;20108;-78
2022/09/12 01:58:33;;;;;;;37.17;33.97;;;;;;;13.29;91.45;101600.19;5028378;28;20099;-78
2022/09/12 02:01:04;;;;;;;37.65;34.03;;;;;;;13.24;91.58;101597.13;5033628;28;20028;-80
2022/09/12 02:03:37;;;;;;;38.45;35.05;;;;;;;13.22;91.96;101591.22;5038057;28;20040;-79
2022/09/12 02:06:09;;;;;;;39.08;35.58;;;;;;;13.21;92.44;101598.22;5036606;28;20037;-79
2022/09/12 02:08:41;;;;;;;38.67;35.20;;;;;;;13.24;91.90;101587.53;5048007;28;20138;-79
2022/09/12 02:11:10;;;;;;;39.35;36.05;;;;;;;13.21;92.43;101587.78;5047981;28;20024;-79
2022/09/12 02:13:41;;;;;;;40.13;36.53;;;;;;;13.31;92.58;101592.28;5045490;28;20043;-78
2022/09/12 02:16:14;;;;;;;39.80;36.30;;;;;;;13.26;92.54;101584.81;5047671;28;20489;-79
2022/09/12 02:18:45;;;;;;;39.63;36.13;;;;;;;13.28;92.39;101578.53;5035473;28;20033;-79
2022/09/12 02:21:12;;;;;;;39.05;35.65;;;;;;;13.24;92.09;101566.69;5042702;28;20068;-78
2022/09/12 02:23:45;;;;;;;38.58;35.30;;;;;;;13.15;92.28;101566.59;5036840;28;20024;-78
2022/09/12 02:26:19;;;;;;;38.65;35.25;;;;;;;13.09;92.23;101573.13;5038478;28;20461;-78
2022/09/12 02:28:44;;;;;;;39.78;36.20;;;;;;;13.10;92.20;101560.91;5039613;28;20713;-79
2022/09/12 02:31:22;;;;;;;40.40;36.90;;;;;;;13.07;92.60;101569.78;5027147;28;20025;-78
2022/09/12 02:33:48;;;;;;;40.30;36.70;;;;;;;13.03;92.57;101573.63;5039911;28;20071;-78
2022/09/12 02:36:36;;;;;;;40.20;36.67;;;;;;;13.08;92.87;101571.47;5047750;28;20056;-78
2022/09/12 02:39:02;;;;;;;40.30;36.60;;;;;;;13.13;92.46;101564.13;5033564;28;20469;-79
2022/09/12 02:41:27;;;;;;;41.42;37.72;;;;;;;13.08;92.98;101570.66;5047623;28;20032;-78
2022/09/12 02:43:53;;;;;;;40.95;37.13;;;;;;;13.01;93.23;101570.28;5046858;28;20033;-79
2022/09/12 02:46:27;;;;;;;40.65;37.05;;;;;;;13.02;93.55;101571.97;5033222;28;20029;-78
2022/09/12 02:48:53;;;;;;;41.38;37.58;;;;;;;13.11;92.93;101566.00;5051136;28;20470;-78
2022/09/12 02:51:19;;;;;;;42.55;38.65;;;;;;;13.17;93.00;101560.28;5040137;28;20032;-79
2022/09/12 02:53:44;;;;;;;43.25;39.20;;;;;;;13.23;93.20;101559.81;5049199;28;20124;-78
2022/09/12 02:56:21;;;;;;;41.97;38.33;;;;;;;13.23;92.50;101562.44;5051407;28;20455;-78
2022/09/12 02:58:47;;;;;;;42.75;38.75;;;;;;;13.35;92.26;101565.00;5051347;28;20125;-78
2022/09/12 03:01:34;;;;;;;41.67;38.17;;;;;;;13.41;92.14;101561.88;5041375;28;20072;-78
2022/09/12 03:04:06;;;;;;;41.20;37.47;;;;;;;13.36;92.12;101561.44;5037898;28;20525;-80
2022/09/12 03:06:40;;;;;;;40.08;36.47;;;;;;;13.40;92.33;101555.03;5051728;28;20033;-80
2022/09/12 03:09:23;;;;;;;42.42;38.55;;;;;;;13.27;93.14;101556.03;5042605;28;20044;-79
2022/09/12 03:12:12;;;;;;;41.97;38.28;;;;;;;13.35;92.31;101557.19;5038985;28;20029;-79
2022/09/12 03:15:16;;;;;;;41.55;37.85;;;;;;;13.36;92.15;101551.00;5037437;28;20037;-79
2022/09/12 03:18:16;;;;;;;42.15;38.30;;;;;;;13.43;92.89;101549.59;4970030;28;20035;-78
2022/09/12 03:20:49;;;;;;;41.42;37.63;;;;;;;13.37;92.28;101539.66;4969241;28;20096;-79
2022/09/12 03:23:33;;;;;;;41.25;37.45;;;;;;;13.41;92.59;101552.28;4969021;28;20475;-80
2022/09/12 03:26:15;;;;;;;39.72;36.15;;;;;;;13.43;92.35;101544.38;4946713;29;20039;-78
2022/09/12 03:28:42;;;;;;;39.28;35.78;;;;;;;13.38;92.08;101541.31;4944387;28;20046;-78
2022/09/12 03:31:16;;;;;;;39.10;35.67;;;;;;;13.33;92.38;101549.50;4970163;28;20162;-78
2022/09/12 03:33:41;;;;;;;38.00;34.70;;;;;;;13.32;92.03;101536.59;4944695;28;20410;-79
2022/09/12 03:36:27;;;;;;;40.33;36.80;;;;;;;13.37;92.13;101539.66;4969781;28;20043;-78
2022/09/12 03:38:53;;;;;;;38.58;35.10;;;;;;;13.33;91.35;101538.25;4980817;28;20039;-79
2022/09/12 03:41:19;;;;;;;37.92;34.58;;;;;;;13.29;91.95;101530.66;4969027;28;20152;-78
2022/09/12 03:43:45;;;;;;;38.60;35.15;;;;;;;13.24;91.50;101540.63;4966500;28;20070;-78
2022/09/12 03:46:10;;;;;;;38.17;34.75;;;;;;;13.29;92.23;101529.84;4968825;28;20119;-78
2022/09/12 03:48:36;;;;;;;38.28;34.88;;;;;;;13.18;91.87;101527.25;5007081;28;20048;-78
2022/09/12 03:51:07;;;;;;;36.70;33.50;;;;;;;13.23;92.11;101533.78;5043541;28;20501;-78
2022/09/12 03:53:33;;;;;;;38.25;34.80;;;;;;;13.18;91.77;101525.47;5039080;28;20025;-78
2022/09/12 03:55:58;;;;;;;38.25;34.75;;;;;;;13.21;91.74;101530.47;5028211;28;20032;-78
2022/09/12 03:58:28;;;;;;;37.28;33.92;;;;;;;13.22;91.78;101529.53;5034524;28;20420;-78
2022/09/12 04:00:53;;;;;;;36.95;33.55;;;;;;;13.16;92.34;101527.38;5042227;28;20358;-80
2022/09/12 04:03:19;;;;;;;38.13;34.70;;;;;;;13.14;92.16;101524.09;5030928;28;20496;-78
2022/09/12 04:05:45;;;;;;;38.60;35.10;;;;;;;13.15;91.79;101520.53;5039486;28;20056;-76
2022/09/12 04:08:11;;;;;;;38.10;34.60;;;;;;;13.18;92.31;101522.03;5037962;28;20076;-78
2022/09/12 04:10:36;;;;;;;37.85;34.35;;;;;;;13.16;92.12;101516.97;5034632;28;20026;-78
2022/09/12 04:13:02;;;;;;;38.92;35.33;;;;;;;13.08;92.50;101511.56;5032574;28;20040;-79
2022/09/12 04:15:27;;;;;;;40.40;36.58;;;;;;;13.10;92.38;101507.06;5042391;28;20066;-78
2022/09/12 04:17:55;;;;;;;40.65;36.97;;;;;;;13.15;92.49;101520.53;5040560;28;20029;-78
2022/09/12 04:20:20;;;;;;;38.08;34.58;;;;;;;13.10;92.35;101512.25;5036749;28;20047;-78
2022/09/12 04:22:46;;;;;;;39.50;35.80;;;;;;;13.13;92.47;101512.03;5049530;28;20054;-78
2022/09/12 04:25:12;;;;;;;39.08;35.28;;;;;;;13.10;92.16;101506.22;5041205;28;20496;-78
2022/09/12 04:27:38;;;;;;;40.00;36.35;;;;;;;13.05;92.02;101504.00;5044530;28;20053;-78
2022/09/12 04:30:04;;;;;;;38.20;34.63;;;;;;;13.06;92.19;101510.84;5037433;28;20032;-78
2022/09/12 04:32:30;;;;;;;38.38;34.72;;;;;;;12.95;92.06;101490.88;5038532;28;20043;-78
2022/09/12 04:34:56;;;;;;;39.70;35.92;;;;;;;13.04;92.23;101507.56;5046564;28;20483;-79
2022/09/12 04:37:22;;;;;;;39.72;35.88;;;;;;;13.01;93.17;101502.59;5039364;28;20036;-78
2022/09/12 04:39:48;;;;;;;39.42;35.67;;;;;;;13.03;93.10;101511.13;5049293;28;20063;-78
2022/09/12 04:42:14;;;;;;;39.40;35.50;;;;;;;12.98;93.25;101498.47;5048717;28;20027;-78
2022/09/12 04:44:39;;;;;;;40.75;37.03;;;;;;;13.02;93.24;101512.06;5049353;28;20415;-79
2022/09/12 04:47:05;;;;;;;40.22;36.42;;;;;;;12.95;92.66;101503.91;5048779;28;20029;-78
2022/09/12 04:49:30;;;;;;;40.50;36.58;;;;;;;13.02;93.36;101509.47;5043331;28;20025;-78
2022/09/12 04:51:56;;;;;;;41.03;37.03;;;;;;;12.98;93.07;101502.84;5049533;28;20032;-81
2022/09/12 04:54:21;;;;;;;42.40;38.15;;;;;;;12.97;93.35;101511.63;5049546;28;20332;-78
2022/09/12 04:56:49;;;;;;;43.28;39.05;;;;;;;12.98;93.97;101513.25;5048561;28;20029;-78
2022/09/12 04:59:17;;;;;;;42.65;38.35;;;;;;;12.96;93.85;101499.53;5048571;28;20551;-77
2022/09/12 05:01:42;;;;;;;44.22;39.53;;;;;;;12.99;93.78;101494.06;5048643;28;20052;-80
2022/09/12 05:04:12;;;;;;;43.65;39.22;;;;;;;12.93;93.71;101495.41;5048347;28;20469;-78
2022/09/12 05:06:38;;;;;;;42.75;38.45;;;;;;;13.05;93.84;101504.00;5048768;28;20032;-79
2022/09/12 05:09:05;;;;;;;43.72;39.30;;;;;;;13.02;94.18;101504.25;5046720;28;20038;-79
2022/09/12 05:11:36;;;;;;;44.10;39.72;;;;;;;13.03;94.42;101508.50;5041293;28;20029;-77
2022/09/12 05:14:02;;;;;;;45.25;40.45;;;;;;;12.95;94.28;101505.69;5045386;28;20021;-77
2022/09/12 05:16:28;;;;;;;44.90;40.33;;;;;;;12.90;94.56;101506.06;5039215;28;20083;-78
2022/09/12 05:18:58;;;;;;;46.50;41.58;;;;;;;12.99;94.56;101514.91;5048142;28;20032;-78
2022/09/12 05:21:24;;;;;;;45.75;40.97;;;;;;;12.98;94.51;101510.66;5042079;28;20033;-77
2022/09/12 05:23:54;;;;;;;45.90;41.05;;;;;;;13.03;94.76;101516.31;5044586;28;20472;-78
2022/09/12 05:26:21;;;;;;;46.80;41.97;;;;;;;13.03;94.04;101514.53;5045215;28;20088;-79
2022/09/12 05:28:48;;;;;;;46.03;41.17;;;;;;;13.00;94.62;101506.13;5047156;28;20037;-78
2022/09/12 05:31:26;;;;;;;46.53;41.53;;;;;;;13.04;94.65;101507.56;5047286;28;20764;-78
2022/09/12 05:33:53;;;;;;;47.45;42.55;;;;;;;13.06;94.22;101505.63;5034874;28;20393;-78
2022/09/12 05:36:24;;;;;;;47.97;42.88;;;;;;;13.08;94.31;101514.19;5047314;28;20461;-78
2022/09/12 05:38:50;;;;;;;47.28;42.17;;;;;;;13.08;94.38;101503.75;5043890;28;20029;-79
2022/09/12 05:41:18;;;;;;;47.00;41.90;;;;;;;13.09;94.53;101510.63;5047581;28;20094;-81
2022/09/12 05:43:45;;;;;;;47.30;42.20;;;;;;;13.13;94.27;101503.34;5047869;28;20033;-78
2022/09/12 05:46:18;;;;;;;47.17;42.15;;;;;;;13.04;94.58;101510.16;5045581;28;20025;-78
2022/09/12 05:48:45;;;;;;;47.85;42.78;;;;;;;13.09;94.36;101504.59;5031269;28;20068;-78
2022/09/12 05:51:26;;;;;;;47.50;42.33;;;;;;;13.08;95.03;101503.75;5032822;28;20481;-78
2022/09/12 05:53:53;;;;;;;47.45;42.28;;;;;;;13.04;94.74;101497.13;5028825;28;20041;-78
2022/09/12 05:56:24;;;;;;;50.10;43.97;;;;;;;13.09;94.63;101500.19;5043855;28;20494;-78
2022/09/12 05:59:17;;;;;;;49.10;43.22;;;;;;;13.20;94.75;101518.38;5033668;28;20025;-78
2022/09/12 06:01:43;;;;;;;47.40;42.30;;;;;;;13.20;94.65;101522.78;5033242;28;20103;-79
2022/09/12 06:04:09;;;;;;;48.15;43.03;;;;;;;13.15;93.97;101511.91;5041772;28;20503;-78
2022/09/12 06:06:40;;;;;;;48.97;43.67;;;;;;;13.15;94.53;101520.53;5048000;28;20020;-80
2022/09/12 06:09:06;;;;;;;47.22;42.25;;;;;;;13.17;93.67;101517.78;5038837;28;20029;-77
2022/09/12 06:11:34;;;;;;;45.92;41.15;;;;;;;13.13;94.13;101519.84;5047918;28;20025;-78
2022/09/12 06:14:00;;;;;;;46.50;41.45;;;;;;;13.13;93.60;101511.16;5044133;28;20024;-78
2022/09/12 06:16:29;;;;;;;47.00;41.83;;;;;;;13.14;93.85;101508.47;5047662;28;20086;-78
2022/09/12 06:19:04;;;;;;;47.08;42.00;;;;;;;13.19;94.06;101511.53;5041114;28;20021;-78
2022/09/12 06:21:30;;;;;;;48.80;42.92;;;;;;;13.15;94.34;101515.31;5036860;28;20383;-78
2022/09/12 06:23:57;;;;;;;48.83;42.80;;;;;;;13.16;94.01;101511.75;5042696;28;20537;-80
2022/09/12 06:26:24;;;;;;;47.30;41.55;;;;;;;13.16;93.99;101514.38;5039485;28;20128;-80
2022/09/12 06:28:50;;;;;;;46.92;41.00;;;;;;;13.13;94.35;101517.25;5043057;28;20021;-78
2022/09/12 06:31:19;;;;;;;46.00;40.95;;;;;;;13.15;94.22;101515.31;5039440;28;20558;-79
2022/09/12 06:33:48;;;;;;;47.08;41.63;;;;;;;13.11;93.66;101508.69;5031637;28;20063;-79
2022/09/12 06:36:18;;;;;;;;;;;;;;;13.33;93.50;101517.41;5033780;28;20031;-78
2022/09/12 06:38:47;;;;;;;47.85;42.65;;;;;;;13.16;93.46;101511.75;5030080;28;20284;-79
2022/09/12 06:41:22;;;;;;;50.00;44.70;;;;;;;13.10;93.80;101509.66;5038854;28;20061;-79
2022/09/12 06:43:48;;;;;;;48.92;43.05;;;;;;;13.16;93.98;101509.16;5045890;28;20063;-78
2022/09/12 06:46:13;;;;;;;48.45;42.90;;;;;;;13.09;93.86;101510.63;5046964;28;20044;-79
2022/09/12 06:48:39;;;;;;;48.05;42.95;;;;;;;13.12;93.73;101515.56;5046762;28;20060;-78
2022/09/12 06:51:15;;;;;;;47.03;42.08;;;;;;;13.09;93.78;101510.63;5047092;28;20039;-78
2022/09/12 06:53:42;;;;;;;48.72;41.97;;;;;;;13.17;93.38;101515.19;5034151;28;20532;-79
2022/09/12 06:56:12;;;;;;;48.00;42.80;;;;;;;13.13;94.25;101506.81;5046432;28;20031;-79
2022/09/12 06:58:38;;;;;;;46.05;41.28;;;;;;;13.14;93.78;101508.47;5047330;28;20037;-79
2022/09/12 07:01:11;;;;;;;48.00;42.88;;;;;;;13.11;94.66;101507.88;5046770;28;20021;-79
2022/09/12 07:03:37;;;;;;;49.50;44.25;;;;;;;13.16;94.57;101511.75;5036086;28;20390;-78
2022/09/12 07:06:05;;;;;;;50.13;44.78;;;;;;;13.19;94.76;101506.31;5029801;28;20018;-78
2022/09/12 07:08:32;;;;;;;50.20;44.90;;;;;;;13.25;95.62;101500.63;5044756;28;20059;-78
2022/09/12 07:11:00;;;;;;;51.20;45.75;;;;;;;13.26;95.08;101486.66;5046136;28;20067;-79
2022/09/12 07:13:25;;;;;;;51.88;46.42;;;;;;;13.42;95.38;101490.56;5046867;28;20374;-79
2022/09/12 07:15:51;;;;;;;51.97;46.40;;;;;;;13.43;95.60;101492.25;5035145;28;20060;-78
2022/09/12 07:18:16;;;;;;;52.67;47.13;;;;;;;13.49;95.38;101482.13;5046671;28;20456;-79
2022/09/12 07:20:42;;;;;;;52.88;46.95;;;;;;;13.59;95.88;101492.63;5041367;28;20635;-79
2022/09/12 07:23:07;;;;;;;51.50;46.10;;;;;;;13.63;95.91;101488.78;5040228;28;20040;-79
2022/09/12 07:25:33;;;;;;;50.08;44.83;;;;;;;13.66;95.51;101483.34;5039507;28;20036;-79
2022/09/12 07:27:58;;;;;;;51.05;45.88;;;;;;;13.79;95.54;101488.34;5039460;28;20048;-79
2022/09/12 07:30:24;;;;;;;52.85;47.28;;;;;;;13.86;95.69;101473.00;5046988;28;20055;-79
2022/09/12 07:32:53;;;;;;;51.88;46.40;;;;;;;14.03;96.19;101493.25;5040501;28;20032;-79
2022/09/12 07:35:19;;;;;;;50.75;45.67;;;;;;;14.08;95.72;101491.06;5050035;28;20033;-79
2022/09/12 07:37:45;;;;;;;49.63;44.47;;;;;;;14.11;94.86;101493.44;5039007;28;20033;-79
2022/09/12 07:40:10;;;;;;;49.08;44.17;;;;;;;14.23;94.60;101487.16;5041229;28;20389;-79
2022/09/12 07:42:35;;;;;;;48.33;43.58;;;;;;;14.31;94.36;101489.91;5050056;28;20041;-79
2022/09/12 07:45:01;;;;;;;46.58;41.85;;;;;;;14.44;94.44;101499.28;5049403;28;20036;-78
2022/09/12 07:47:26;;;;;;;46.75;42.10;;;;;;;14.49;94.05;101491.91;5045660;28;20041;-79
2022/09/12 07:49:52;;;;;;;47.25;42.38;;;;;;;14.59;93.71;101497.97;5048529;28;20020;-79
2022/09/12 07:52:17;;;;;;;47.65;43.00;;;;;;;14.73;94.11;101505.41;5047924;28;20043;-79
2022/09/12 07:54:43;;;;;;;45.80;41.08;;;;;;;14.81;93.73;101505.56;5047484;28;20056;-79
2022/09/12 07:57:08;;;;;;;44.95;40.45;;;;;;;14.81;93.32;101492.50;5042619;28;20037;-79
2022/09/12 07:59:33;;;;;;;45.97;41.38;;;;;;;14.92;92.42;101509.03;5033442;28;20025;-80
2022/09/12 08:01:59;;;;;;;43.92;39.65;;;;;;;15.02;92.65;101504.59;5043922;28;20025;-81
2022/09/12 08:04:24;;;;;;;45.03;40.72;;;;;;;15.06;93.13;101495.53;5041409;28;20033;-79
2022/09/12 08:06:50;;;;;;;42.72;38.33;;;;;;;15.15;92.55;101505.16;5049206;28;20444;-79
2022/09/12 08:09:16;;;;;;;43.60;39.25;;;;;;;15.28;92.76;101505.69;5047637;28;20040;-79
2022/09/12 08:11:41;;;;;;;42.58;38.42;;;;;;;15.38;92.84;101506.53;5049622;28;20028;-79
2022/09/12 08:14:07;;;;;;;43.00;38.78;;;;;;;15.46;92.25;101505.00;5044859;28;20033;-79
2022/09/12 08:16:34;;;;;;;41.72;37.72;;;;;;;15.51;92.53;101502.78;5040287;28;20029;-79
2022/09/12 08:19:01;;;;;;;39.97;36.13;;;;;;;15.64;92.12;101506.75;5049671;28;20032;-80
2022/09/12 08:21:31;;;;;;;39.58;35.85;;;;;;;15.70;91.34;101510.59;5037851;28;20570;-80
2022/09/12 08:24:02;;;;;;;39.65;35.85;;;;;;;15.76;91.03;101510.03;5030102;28;20043;-80
2022/09/12 08:26:28;;;;;;;39.58;35.90;;;;;;;15.87;90.68;101517.72;5032857;28;20061;-79
2022/09/12 08:28:54;;;;;;;39.60;35.78;;;;;;;15.97;90.02;101516.88;5049156;28;20369;-79
2022/09/12 08:31:21;;;;;;;38.90;35.25;;;;;;;16.02;89.65;101514.66;5035840;28;20503;-79
2022/09/12 08:33:46;;;;;;;37.03;33.55;;;;;;;16.18;90.64;101514.88;5046435;28;20033;-79
2022/09/12 08:36:18;;;;;;;38.78;34.97;;;;;;;16.22;90.05;101500.50;5048799;28;20066;-79
2022/09/12 08:38:45;;;;;;;37.97;34.30;;;;;;;16.33;89.76;101508.16;5034589;28;20036;-79
2022/09/12 08:41:17;;;;;;;35.40;31.90;;;;;;;16.54;89.25;101513.16;5049051;28;20033;-79
2022/09/12 08:44:00;;;;;;;32.30;29.50;;;;;;;16.62;88.78;101507.97;5047244;28;20432;-79
2022/09/12 08:46:48;;;;;;;31.67;28.73;;;;;;;16.73;87.77;101509.59;5038601;28;20034;-79
2022/09/12 08:49:24;;;;;;;;;;;;;;;16.85;89.17;101512.81;5040606;28;20048;-79
2022/09/12 08:51:50;;;;;;;29.33;26.52;;;;;;;17.06;86.62;101504.69;5042323;28;19917;-79
2022/09/12 08:54:25;;;;;;;28.40;25.83;;;;;;;17.24;86.08;101508.09;5043047;28;20021;-79
2022/09/12 08:56:56;;;;;;;29.02;26.35;;;;;;;17.35;84.58;101505.22;5043809;28;20024;-79
2022/09/12 08:59:22;;;;;;;28.38;25.95;;;;;;;17.42;84.14;101508.88;5047379;28;20040;-79
2022/09/12 09:01:52;;;;;;;27.63;25.10;;;;;;;17.66;83.82;101507.41;5048400;28;20058;-81
2022/09/12 09:04:56;;;;;;;28.67;26.08;;;;;;;17.78;83.97;101516.72;5047993;28;20072;-79
2022/09/12 09:07:27;;;;;;;27.60;25.10;;;;;;;17.90;82.54;101512.84;5048144;28;20056;-79
2022/09/12 09:10:12;;;;;;;27.50;25.05;;;;;;;17.91;82.35;101511.84;5048500;28;20042;-79
2022/09/12 09:13:03;;;;;;;26.73;24.35;;;;;;;18.02;82.09;101508.97;5048124;28;20090;-79
2022/09/12 09:15:44;;;;;;;27.58;25.17;;;;;;;18.14;81.44;101506.88;5047946;28;20438;-79
2022/09/12 09:18:17;;;;;;;26.50;24.25;;;;;;;18.24;80.86;101506.75;5048466;28;20033;-80
2022/09/12 09:20:45;;;;;;;28.92;26.13;;;;;;;18.29;79.99;101504.44;5048032;28;20391;-79
2022/09/12 09:23:19;;;;;;;27.38;25.02;;;;;;;18.53;79.88;101491.41;5048443;28;20025;-79
2022/09/12 09:25:52;;;;;;;27.25;24.65;;;;;;;18.55;79.22;101493.88;5044562;28;20024;-79
2022/09/12 09:28:33;;;;;;;28.35;25.75;;;;;;;18.67;78.41;101491.75;5047379;28;20044;-79
2022/09/12 09:30:58;;;;;;;27.42;24.98;;;;;;;18.75;77.32;101484.75;5048104;28;20029;-79
2022/09/12 09:33:28;;;;;;;25.95;23.58;;;;;;;18.91;77.58;101494.44;5048272;28;20043;-80
2022/09/12 09:36:08;;;;;;;26.27;23.77;;;;;;;19.05;77.84;101485.09;5047578;28;20490;-80
2022/09/12 09:39:01;;;;;;;24.45;22.15;;;;;;;19.19;77.97;101483.59;5038112;28;20116;-79
2022/09/12 09:41:45;;;;;;;23.48;21.35;;;;;;;19.23;76.64;101483.09;5047346;28;20021;-79
2022/09/12 09:44:11;;;;;;;23.63;21.55;;;;;;;19.25;74.21;101485.56;5037016;28;20044;-79
2022/09/12 09:46:36;;;;;;;22.70;20.60;;;;;;;19.31;74.34;101482.25;5045155;28;20064;-79
2022/09/12 09:49:03;;;;;;;22.73;20.63;;;;;;;19.40;72.79;101476.03;5040359;28;20536;-79
2022/09/12 09:51:34;;;;;;;18.85;17.17;;;;;;;19.48;73.04;101486.50;5047545;28;20104;-80
2022/09/12 09:54:48;;;;;;;19.55;17.77;;;;;;;19.63;74.66;101479.63;5047823;28;20098;-79
2022/09/12 09:57:35;;;;;;;18.25;16.58;;;;;;;19.79;73.95;101467.41;5015636;28;20104;-79
2022/09/12 10:00:22;;;;;;;19.73;17.92;;;;;;;19.82;73.37;101464.41;5045905;28;20020;-80
2022/09/12 10:03:10;;;;;;;19.02;17.33;;;;;;;19.97;71.42;101460.09;5034183;28;20112;-79
2022/09/12 10:05:45;;;;;;;17.98;16.38;;;;;;;20.01;70.93;101461.38;5027448;28;20025;-79
2022/09/12 10:08:21;;;;;;;17.25;15.65;;;;;;;20.24;69.97;101463.25;5047448;28;20425;-80
2022/09/12 10:11:18;;;;;;;16.75;15.15;;;;;;;20.25;69.92;101457.00;5047605;28;20029;-79
2022/09/12 10:13:49;;;;;;;15.70;14.10;;;;;;;20.30;68.29;101459.91;5047135;28;20029;-79
2022/09/12 10:16:22;;;;;;;15.63;14.05;;;;;;;20.41;68.51;101455.09;5047153;28;20071;-79
2022/09/12 10:18:51;;;;;;;15.68;14.18;;;;;;;20.50;68.27;101458.50;5038513;28;20033;-80
2022/09/12 10:21:30;;;;;;;14.63;13.18;;;;;;;20.62;67.77;101449.19;5047406;28;20025;-79
2022/09/12 10:24:22;;;;;;;15.30;13.80;;;;;;;20.70;67.66;101445.69;5047145;28;20589;-79
2022/09/12 10:26:57;;;;;;;15.68;14.18;;;;;;;20.85;66.62;101437.81;5046842;28;20171;-80
2022/09/12 10:29:30;;;;;;;15.65;14.15;;;;;;;20.92;66.19;101438.75;5047565;28;20548;-79
2022/09/12 10:32:03;;;;;;;16.70;15.05;;;;;;;20.95;66.19;101422.59;5038481;28;20043;-79
2022/09/12 10:34:38;;;;;;;13.63;12.13;;;;;;;21.06;65.31;101430.06;5046936;28;20052;-79
2022/09/12 10:37:06;;;;;;;14.30;13.00;;;;;;;21.06;64.86;101418.69;5032897;28;20021;-79
2022/09/12 10:39:34;;;;;;;14.13;12.73;;;;;;;21.14;64.29;101411.50;5036581;28;20057;-79
2022/09/12 10:42:02;;;;;;;12.05;10.95;;;;;;;21.32;64.25;101413.00;5044786;28;20083;-79
2022/09/12 10:44:30;;;;;;;11.80;10.60;;;;;;;21.37;63.39;101406.19;5046817;28;20024;-80
2022/09/12 10:46:56;;;;;;;10.88;9.57;;;;;;;21.56;64.33;101410.09;5040645;28;20033;-79
2022/09/12 10:49:28;;;;;;;13.77;12.40;;;;;;;21.51;63.12;101409.84;5039624;28;20056;-79
2022/09/12 10:51:58;;;;;;;13.20;11.93;;;;;;;21.68;63.82;101407.84;5040395;28;20024;-79
2022/09/12 10:54:26;;;;;;;13.70;12.25;;;;;;;21.86;62.79;101410.91;5041354;28;20029;-79
2022/09/12 10:57:16;;;;;;;14.35;12.95;;;;;;;21.92;64.21;101409.34;5039498;28;20047;-80
2022/09/12 10:59:50;;;;;;;14.20;12.68;;;;;;;22.05;61.99;101403.38;5032243;28;20024;-79
2022/09/12 11:02:30;;;;;;;11.98;10.68;;;;;;;22.02;61.33;101404.56;5043263;28;20021;-80
2022/09/12 11:05:02;;;;;;;14.18;11.68;;;;;;;21.95;60.13;101399.19;5033176;28;20028;-79
2022/09/12 11:07:37;;;;;;;11.60;10.48;;;;;;;22.05;60.42;101401.56;5050081;28;20017;-79
2022/09/12 11:10:02;;;;;;;11.70;10.55;;;;;;;22.06;58.83;101400.53;5042161;28;20044;-79
2022/09/12 11:12:30;;;;;;;10.80;9.70;;;;;;;22.19;59.43;101395.44;5050265;28;20012;-80
2022/09/12 11:15:10;;;;;;;10.80;9.80;;;;;;;22.20;61.24;101386.50;5051052;28;20436;-79
2022/09/12 11:17:48;;;;;;;11.80;10.50;;;;;;;22.31;59.31;101393.13;5062148;28;20132;-79
2022/09/12 11:20:22;;;;;;;;;;;;;;;22.49;62.86;101387.41;5032843;28;20052;-80
2022/09/12 11:23:22;;;;;;;11.52;10.35;;;;;;;22.60;60.85;101381.59;5040709;28;19975;-79
2022/09/12 11:25:59;;;;;;;12.50;11.27;;;;;;;22.59;59.46;101379.94;5038050;28;20033;-80
2022/09/12 11:28:27;;;;;;;12.23;11.07;;;;;;;22.65;58.90;101379.22;5040239;28;20052;-79
2022/09/12 11:31:07;;;;;;;11.35;10.25;;;;;;;22.61;59.90;101372.66;5050504;28;20454;-79